WZZ27UT UGKO-EPKT
Flight info
| Callsign | WZZ27UT |
|---|---|
| Flight time | 3h 14m |
| Altitude | 36000 |
| Route | KUSSA1E KUSSA DCT IZERO UL21 ATCEF UM10 OLUPO UL851 KARDE UN644 SIN UW90 INB UL746 ODERO L621 REVDA DCT BADOR DCT ABULI DCT REDSI DCT MEBAN MEBAN5D |
| Aircraft | A21N/M-SDE1E2E3FGIJ1J4RWXY/LB1 |
Departure
| Time | 2026-04-22 11:18 |
|---|---|
| Airport | David the Builder Kutaisi International Airport (UGKO) |
Arrival
| Time | 2026-04-22 14:32 |
|---|---|
| Airport | Katowice Wojciech Korfanty International Airport (EPKT) |
| Time | Latitude | Longitude | Altitude | Speed | Heading |
|---|---|---|---|---|---|
| 2026-04-22 11:07 | 42.18117 | 42.46523 | 146 ft | 0 kts | 72° |
| 2026-04-22 11:12 | 42.18121 | 42.46549 | 146 ft | 6 kts | 84° |
| 2026-04-22 11:12 | 42.18071 | 42.46614 | 146 ft | 14 kts | 164° |
| 2026-04-22 11:12 | 42.18015 | 42.46715 | 146 ft | 18 kts | 67° |
| 2026-04-22 11:13 | 42.18039 | 42.46882 | 146 ft | 20 kts | 135° |
| 2026-04-22 11:13 | 42.17925 | 42.46966 | 146 ft | 19 kts | 141° |
| 2026-04-22 11:13 | 42.17907 | 42.47129 | 146 ft | 18 kts | 78° |
| 2026-04-22 11:13 | 42.17908 | 42.47299 | 146 ft | 19 kts | 122° |
| 2026-04-22 11:14 | 42.17795 | 42.47393 | 145 ft | 20 kts | 160° |
| 2026-04-22 11:14 | 42.17660 | 42.47458 | 145 ft | 21 kts | 160° |
| 2026-04-22 11:14 | 42.17597 | 42.47611 | 144 ft | 22 kts | 78° |
| 2026-04-22 11:14 | 42.17626 | 42.47819 | 146 ft | 23 kts | 81° |
| 2026-04-22 11:15 | 42.17653 | 42.48040 | 146 ft | 24 kts | 80° |
| 2026-04-22 11:15 | 42.17681 | 42.48268 | 148 ft | 26 kts | 80° |
| 2026-04-22 11:15 | 42.17712 | 42.48510 | 149 ft | 27 kts | 80° |
| 2026-04-22 11:15 | 42.17740 | 42.48734 | 147 ft | 22 kts | 80° |
| 2026-04-22 11:16 | 42.17765 | 42.48939 | 145 ft | 23 kts | 80° |
| 2026-04-22 11:16 | 42.17793 | 42.49153 | 144 ft | 24 kts | 80° |
| 2026-04-22 11:16 | 42.17821 | 42.49376 | 143 ft | 25 kts | 80° |
| 2026-04-22 11:16 | 42.17851 | 42.49610 | 145 ft | 26 kts | 70° |
| 2026-04-22 11:17 | 42.17861 | 42.49732 | 145 ft | 15 kts | 208° |
| 2026-04-22 11:17 | 42.17850 | 42.49603 | 144 ft | 14 kts | 260° |
| 2026-04-22 11:17 | 42.17808 | 42.49277 | 143 ft | 71 kts | 261° |
| 2026-04-22 11:17 | 42.17683 | 42.48301 | 148 ft | 139 kts | 260° |
| 2026-04-22 11:18 | 42.17500 | 42.46925 | 578 ft | 148 kts | 260° |
| 2026-04-22 11:18 | 42.17281 | 42.45578 | 1135 ft | 151 kts | 261° |
| 2026-04-22 11:18 | 42.17202 | 42.44117 | 1652 ft | 160 kts | 271° |
| 2026-04-22 11:18 | 42.17086 | 42.42593 | 2177 ft | 166 kts | 265° |
| 2026-04-22 11:19 | 42.16922 | 42.41045 | 2731 ft | 170 kts | 263° |
| 2026-04-22 11:19 | 42.16627 | 42.39416 | 3139 ft | 187 kts | 261° |
| 2026-04-22 11:19 | 42.16365 | 42.37626 | 3592 ft | 203 kts | 261° |
| 2026-04-22 11:19 | 42.16105 | 42.35672 | 4029 ft | 223 kts | 261° |
| 2026-04-22 11:20 | 42.15826 | 42.33505 | 4425 ft | 246 kts | 260° |
| 2026-04-22 11:20 | 42.15528 | 42.31168 | 5040 ft | 258 kts | 259° |
| 2026-04-22 11:20 | 42.15222 | 42.28772 | 5908 ft | 260 kts | 259° |
| 2026-04-22 11:20 | 42.14916 | 42.26374 | 6825 ft | 259 kts | 259° |
| 2026-04-22 11:21 | 42.14611 | 42.23987 | 7726 ft | 258 kts | 259° |
| 2026-04-22 11:21 | 42.14307 | 42.21603 | 8593 ft | 258 kts | 258° |
| 2026-04-22 11:21 | 42.13940 | 42.19235 | 9484 ft | 258 kts | 251° |
| 2026-04-22 11:21 | 42.13176 | 42.17049 | 10205 ft | 264 kts | 240° |
| 2026-04-22 11:22 | 42.12203 | 42.14855 | 10539 ft | 282 kts | 239° |
| 2026-04-22 11:22 | 42.11159 | 42.12538 | 10930 ft | 295 kts | 239° |
| 2026-04-22 11:22 | 42.10086 | 42.10140 | 11544 ft | 302 kts | 239° |
| 2026-04-22 11:22 | 42.09003 | 42.07708 | 12298 ft | 304 kts | 239° |
| 2026-04-22 11:23 | 42.07910 | 42.05249 | 13071 ft | 308 kts | 239° |
| 2026-04-22 11:23 | 42.06803 | 42.02757 | 13869 ft | 312 kts | 240° |
| 2026-04-22 11:23 | 42.05683 | 42.00233 | 14565 ft | 316 kts | 240° |
| 2026-04-22 11:23 | 42.04556 | 41.97691 | 15334 ft | 318 kts | 240° |
| 2026-04-22 11:24 | 42.03434 | 41.95164 | 16015 ft | 320 kts | 240° |
| 2026-04-22 11:24 | 42.02266 | 41.92536 | 16666 ft | 325 kts | 240° |
| 2026-04-22 11:24 | 42.01099 | 41.89912 | 17278 ft | 329 kts | 240° |
| 2026-04-22 11:24 | 41.99919 | 41.87260 | 17889 ft | 332 kts | 240° |
| 2026-04-22 11:25 | 41.98740 | 41.84618 | 18437 ft | 336 kts | 240° |
| 2026-04-22 11:25 | 41.97535 | 41.81919 | 18957 ft | 338 kts | 240° |
| 2026-04-22 11:25 | 41.96319 | 41.79196 | 19494 ft | 341 kts | 241° |
| 2026-04-22 11:25 | 41.95109 | 41.76446 | 20039 ft | 343 kts | 241° |
| 2026-04-22 11:26 | 41.93892 | 41.73680 | 20571 ft | 345 kts | 241° |
| 2026-04-22 11:26 | 41.92659 | 41.70899 | 21092 ft | 347 kts | 241° |
| 2026-04-22 11:26 | 41.91415 | 41.68109 | 21603 ft | 350 kts | 241° |
| 2026-04-22 11:26 | 41.90160 | 41.65301 | 22121 ft | 352 kts | 242° |
| 2026-04-22 11:27 | 41.88896 | 41.62478 | 22622 ft | 354 kts | 242° |
| 2026-04-22 11:27 | 41.87621 | 41.59636 | 23121 ft | 357 kts | 242° |
| 2026-04-22 11:27 | 41.86337 | 41.56771 | 23606 ft | 359 kts | 242° |
| 2026-04-22 11:27 | 41.85046 | 41.53895 | 24000 ft | 361 kts | 242° |
| 2026-04-22 11:28 | 41.83744 | 41.50999 | 24378 ft | 363 kts | 242° |
| 2026-04-22 11:28 | 41.82436 | 41.48098 | 24727 ft | 365 kts | 242° |
| 2026-04-22 11:28 | 41.81120 | 41.45181 | 25064 ft | 366 kts | 242° |
| 2026-04-22 11:28 | 41.79798 | 41.42255 | 25374 ft | 368 kts | 242° |
| 2026-04-22 11:29 | 41.78472 | 41.39323 | 25730 ft | 369 kts | 242° |
| 2026-04-22 11:29 | 41.77141 | 41.36384 | 26042 ft | 370 kts | 242° |
| 2026-04-22 11:29 | 41.75806 | 41.33437 | 26339 ft | 371 kts | 242° |
| 2026-04-22 11:29 | 41.74463 | 41.30477 | 26629 ft | 373 kts | 242° |
| 2026-04-22 11:30 | 41.73113 | 41.27505 | 26918 ft | 374 kts | 242° |
| 2026-04-22 11:30 | 41.71757 | 41.24520 | 27205 ft | 376 kts | 242° |
| 2026-04-22 11:30 | 41.70394 | 41.21523 | 27494 ft | 378 kts | 242° |
| 2026-04-22 11:30 | 41.69024 | 41.18515 | 27781 ft | 379 kts | 242° |
| 2026-04-22 11:31 | 41.67649 | 41.15498 | 28068 ft | 381 kts | 242° |
| 2026-04-22 11:31 | 41.66323 | 41.12432 | 28327 ft | 381 kts | 246° |
| 2026-04-22 11:31 | 41.65362 | 41.09143 | 28544 ft | 380 kts | 256° |
| 2026-04-22 11:31 | 41.64807 | 41.05754 | 28774 ft | 381 kts | 259° |
| 2026-04-22 11:32 | 41.64209 | 41.02274 | 29021 ft | 383 kts | 257° |
| 2026-04-22 11:32 | 41.63526 | 40.98828 | 29279 ft | 384 kts | 257° |
| 2026-04-22 11:32 | 41.62913 | 40.95348 | 29498 ft | 385 kts | 259° |
| 2026-04-22 11:32 | 41.62377 | 40.91834 | 29729 ft | 386 kts | 260° |
| 2026-04-22 11:33 | 41.61884 | 40.88298 | 29950 ft | 388 kts | 261° |
| 2026-04-22 11:33 | 41.61408 | 40.84745 | 30158 ft | 389 kts | 261° |
| 2026-04-22 11:33 | 41.60938 | 40.81183 | 30328 ft | 390 kts | 261° |
| 2026-04-22 11:33 | 41.60466 | 40.77602 | 30497 ft | 391 kts | 261° |
| 2026-04-22 11:34 | 41.59993 | 40.74016 | 30671 ft | 393 kts | 261° |
| 2026-04-22 11:34 | 41.59518 | 40.70419 | 30824 ft | 394 kts | 261° |
| 2026-04-22 11:34 | 41.59182 | 40.66785 | 30979 ft | 395 kts | 266° |
| 2026-04-22 11:34 | 41.59147 | 40.63107 | 31138 ft | 397 kts | 272° |
| 2026-04-22 11:35 | 41.59383 | 40.59435 | 31306 ft | 398 kts | 275° |
| 2026-04-22 11:35 | 41.59649 | 40.55751 | 31485 ft | 398 kts | 274° |
| 2026-04-22 11:35 | 41.59877 | 40.52062 | 31641 ft | 399 kts | 273° |
| 2026-04-22 11:35 | 41.60081 | 40.48356 | 31788 ft | 400 kts | 273° |
| 2026-04-22 11:36 | 41.60272 | 40.44642 | 31928 ft | 401 kts | 273° |
| 2026-04-22 11:36 | 41.60458 | 40.40920 | 32064 ft | 402 kts | 273° |
| 2026-04-22 11:36 | 41.60641 | 40.37195 | 32227 ft | 402 kts | 273° |
| 2026-04-22 11:36 | 41.60822 | 40.33469 | 32400 ft | 402 kts | 273° |
| 2026-04-22 11:37 | 41.61003 | 40.29742 | 32566 ft | 402 kts | 273° |
| 2026-04-22 11:37 | 41.61182 | 40.26021 | 32726 ft | 401 kts | 272° |
| 2026-04-22 11:37 | 41.61359 | 40.22303 | 32881 ft | 401 kts | 272° |
| 2026-04-22 11:37 | 41.61536 | 40.18585 | 33034 ft | 401 kts | 272° |
| 2026-04-22 11:38 | 41.61711 | 40.14867 | 33156 ft | 401 kts | 272° |
| 2026-04-22 11:38 | 41.61885 | 40.11148 | 33276 ft | 401 kts | 272° |
| 2026-04-22 11:38 | 41.62229 | 40.03708 | 33544 ft | 401 kts | 272° |
| 2026-04-22 11:39 | 41.62399 | 39.99994 | 33682 ft | 401 kts | 272° |
| 2026-04-22 11:39 | 41.62568 | 39.96276 | 33812 ft | 400 kts | 272° |
| 2026-04-22 11:39 | 41.62733 | 39.92614 | 33935 ft | 400 kts | 272° |
| 2026-04-22 11:39 | 41.62900 | 39.88902 | 34046 ft | 400 kts | 272° |
| 2026-04-22 11:40 | 41.63229 | 39.81480 | 34246 ft | 400 kts | 272° |
| 2026-04-22 11:40 | 41.63392 | 39.77769 | 34350 ft | 400 kts | 272° |
| 2026-04-22 11:40 | 41.63554 | 39.74065 | 34472 ft | 399 kts | 272° |
| 2026-04-22 11:41 | 41.63714 | 39.70368 | 34573 ft | 398 kts | 272° |
| 2026-04-22 11:41 | 41.63872 | 39.66684 | 34674 ft | 397 kts | 272° |
| 2026-04-22 11:41 | 41.64185 | 39.59307 | 34839 ft | 397 kts | 272° |
| 2026-04-22 11:42 | 41.64492 | 39.51930 | 34950 ft | 398 kts | 272° |
| 2026-04-22 11:42 | 41.64834 | 39.44548 | 35094 ft | 398 kts | 272° |
| 2026-04-22 11:43 | 41.65179 | 39.37159 | 35259 ft | 398 kts | 272° |
| 2026-04-22 11:43 | 41.65418 | 39.29775 | 35428 ft | 397 kts | 269° |
| 2026-04-22 11:44 | 41.65609 | 39.22413 | 35556 ft | 398 kts | 277° |
| 2026-04-22 11:44 | 41.66533 | 39.15116 | 35663 ft | 397 kts | 275° |
| 2026-04-22 11:45 | 41.66996 | 39.07766 | 35777 ft | 396 kts | 272° |
| 2026-04-22 11:45 | 41.67291 | 39.00407 | 35889 ft | 396 kts | 271° |
| 2026-04-22 11:46 | 41.67562 | 38.93045 | 36009 ft | 396 kts | 271° |
| 2026-04-22 11:46 | 41.67728 | 38.85702 | 36001 ft | 395 kts | 266° |
| 2026-04-22 11:47 | 41.67549 | 38.78369 | 36005 ft | 395 kts | 269° |
| 2026-04-22 11:47 | 41.67700 | 38.71023 | 36002 ft | 395 kts | 271° |
| 2026-04-22 11:48 | 41.67944 | 38.63681 | 36004 ft | 395 kts | 271° |
| 2026-04-22 11:48 | 41.68192 | 38.56322 | 36006 ft | 395 kts | 271° |
| 2026-04-22 11:49 | 41.68432 | 38.49031 | 36009 ft | 396 kts | 271° |
| 2026-04-22 11:49 | 41.68669 | 38.41693 | 36006 ft | 395 kts | 270° |
| 2026-04-22 11:50 | 41.68902 | 38.34331 | 36006 ft | 397 kts | 270° |
| 2026-04-22 11:50 | 41.69131 | 38.26983 | 36006 ft | 396 kts | 270° |
| 2026-04-22 11:51 | 41.69354 | 38.19625 | 36006 ft | 395 kts | 270° |
| 2026-04-22 11:51 | 41.69574 | 38.12264 | 36015 ft | 395 kts | 270° |
| 2026-04-22 11:52 | 41.69787 | 38.04942 | 36008 ft | 395 kts | 270° |
| 2026-04-22 11:52 | 41.69963 | 37.98801 | 36006 ft | 394 kts | 270° |
| 2026-04-22 11:53 | 41.70167 | 37.91517 | 36006 ft | 394 kts | 270° |
| 2026-04-22 11:53 | 41.70367 | 37.84184 | 36008 ft | 394 kts | 270° |
| 2026-04-22 11:54 | 41.70563 | 37.76871 | 36000 ft | 394 kts | 270° |
| 2026-04-22 11:54 | 41.70769 | 37.69527 | 36007 ft | 393 kts | 271° |
| 2026-04-22 11:55 | 41.72012 | 37.62364 | 36007 ft | 402 kts | 288° |
| 2026-04-22 11:55 | 41.74219 | 37.55491 | 36007 ft | 402 kts | 289° |
| 2026-04-22 11:56 | 41.76395 | 37.48596 | 36007 ft | 401 kts | 287° |
| 2026-04-22 11:56 | 41.78492 | 37.41663 | 36025 ft | 401 kts | 288° |
| 2026-04-22 11:57 | 41.80647 | 37.34787 | 36013 ft | 400 kts | 288° |
| 2026-04-22 11:57 | 41.82872 | 37.27943 | 36008 ft | 402 kts | 290° |
| 2026-04-22 11:58 | 41.85145 | 37.21107 | 36008 ft | 401 kts | 289° |
| 2026-04-22 11:58 | 41.87330 | 37.14234 | 36008 ft | 399 kts | 288° |
| 2026-04-22 11:59 | 41.89484 | 37.07369 | 36014 ft | 399 kts | 287° |
| 2026-04-22 11:59 | 41.90726 | 37.00263 | 36005 ft | 393 kts | 273° |
| 2026-04-22 12:00 | 41.91193 | 36.92942 | 36010 ft | 391 kts | 272° |
| 2026-04-22 12:00 | 41.91652 | 36.85717 | 36011 ft | 391 kts | 272° |
| 2026-04-22 12:01 | 41.92131 | 36.78450 | 36007 ft | 392 kts | 272° |
| 2026-04-22 12:01 | 41.92613 | 36.71165 | 36004 ft | 391 kts | 272° |
| 2026-04-22 12:02 | 41.93094 | 36.63849 | 35998 ft | 391 kts | 272° |
| 2026-04-22 12:02 | 41.93568 | 36.56608 | 36006 ft | 392 kts | 272° |
| 2026-04-22 12:03 | 41.94034 | 36.49321 | 36006 ft | 393 kts | 272° |
| 2026-04-22 12:03 | 41.94497 | 36.42038 | 36006 ft | 391 kts | 272° |
| 2026-04-22 12:04 | 41.94956 | 36.34763 | 36002 ft | 391 kts | 272° |
| 2026-04-22 12:04 | 41.95412 | 36.27478 | 36010 ft | 392 kts | 272° |
| 2026-04-22 12:05 | 41.95863 | 36.20195 | 36010 ft | 391 kts | 272° |
| 2026-04-22 12:05 | 41.96304 | 36.12921 | 36012 ft | 391 kts | 272° |
| 2026-04-22 12:06 | 41.96741 | 36.05643 | 36007 ft | 391 kts | 272° |
| 2026-04-22 12:06 | 41.97176 | 35.98366 | 36025 ft | 391 kts | 272° |
| 2026-04-22 12:07 | 41.97605 | 35.91109 | 36006 ft | 390 kts | 272° |
| 2026-04-22 12:07 | 41.98032 | 35.83850 | 36007 ft | 390 kts | 272° |
| 2026-04-22 12:08 | 41.98449 | 35.76641 | 36009 ft | 389 kts | 272° |
| 2026-04-22 12:08 | 41.98866 | 35.69391 | 36013 ft | 389 kts | 272° |
| 2026-04-22 12:09 | 41.99285 | 35.62130 | 36011 ft | 389 kts | 272° |
| 2026-04-22 12:09 | 41.99691 | 35.54871 | 36018 ft | 390 kts | 272° |
| 2026-04-22 12:10 | 42.00096 | 35.47608 | 36017 ft | 389 kts | 271° |
| 2026-04-22 12:10 | 42.00490 | 35.40350 | 36015 ft | 389 kts | 271° |
| 2026-04-22 12:11 | 42.00882 | 35.33087 | 36016 ft | 389 kts | 271° |
| 2026-04-22 12:11 | 42.01275 | 35.25818 | 36017 ft | 389 kts | 271° |
| 2026-04-22 12:12 | 42.01660 | 35.18542 | 36028 ft | 390 kts | 271° |
| 2026-04-22 12:12 | 42.02036 | 35.11261 | 36022 ft | 390 kts | 271° |
| 2026-04-22 12:13 | 42.02069 | 35.03985 | 36025 ft | 389 kts | 265° |
| 2026-04-22 12:13 | 42.01718 | 34.96735 | 36023 ft | 389 kts | 265° |
| 2026-04-22 12:14 | 42.01364 | 34.89483 | 36022 ft | 389 kts | 265° |
| 2026-04-22 12:14 | 42.01015 | 34.82225 | 36021 ft | 389 kts | 265° |
| 2026-04-22 12:15 | 42.00668 | 34.74978 | 36020 ft | 388 kts | 265° |
| 2026-04-22 12:15 | 42.00317 | 34.67742 | 36021 ft | 388 kts | 265° |
| 2026-04-22 12:16 | 41.99957 | 34.60501 | 36018 ft | 388 kts | 265° |
| 2026-04-22 12:16 | 41.99594 | 34.53266 | 36017 ft | 388 kts | 265° |
| 2026-04-22 12:17 | 41.99228 | 34.46038 | 36027 ft | 388 kts | 265° |
| 2026-04-22 12:17 | 41.98856 | 34.38806 | 36020 ft | 388 kts | 265° |
| 2026-04-22 12:18 | 41.98484 | 34.31569 | 36033 ft | 388 kts | 265° |
| 2026-04-22 12:18 | 41.98101 | 34.24354 | 36023 ft | 387 kts | 265° |
| 2026-04-22 12:19 | 41.97715 | 34.17144 | 36020 ft | 387 kts | 265° |
| 2026-04-22 12:19 | 41.97325 | 34.09938 | 36020 ft | 386 kts | 265° |
| 2026-04-22 12:20 | 41.96932 | 34.02728 | 36019 ft | 387 kts | 264° |
| 2026-04-22 12:20 | 41.96535 | 33.95522 | 36020 ft | 386 kts | 264° |
| 2026-04-22 12:21 | 41.96134 | 33.88321 | 36027 ft | 387 kts | 264° |
| 2026-04-22 12:21 | 41.95736 | 33.81167 | 36014 ft | 386 kts | 264° |
| 2026-04-22 12:22 | 41.95338 | 33.73984 | 36017 ft | 385 kts | 265° |
| 2026-04-22 12:22 | 41.95827 | 33.66809 | 36015 ft | 390 kts | 280° |
| 2026-04-22 12:23 | 41.97205 | 33.59754 | 36010 ft | 391 kts | 281° |
| 2026-04-22 12:23 | 41.98590 | 33.52698 | 36029 ft | 390 kts | 281° |
| 2026-04-22 12:24 | 41.99949 | 33.45650 | 36040 ft | 389 kts | 281° |
| 2026-04-22 12:24 | 42.01300 | 33.38620 | 36031 ft | 388 kts | 281° |
| 2026-04-22 12:25 | 42.02631 | 33.31595 | 36035 ft | 388 kts | 281° |
| 2026-04-22 12:25 | 42.03959 | 33.24568 | 36022 ft | 388 kts | 281° |
| 2026-04-22 12:26 | 42.05289 | 33.17537 | 36045 ft | 388 kts | 281° |
| 2026-04-22 12:26 | 42.06616 | 33.10523 | 36032 ft | 386 kts | 281° |
| 2026-04-22 12:27 | 42.07999 | 33.03536 | 36029 ft | 387 kts | 282° |
| 2026-04-22 12:27 | 42.09435 | 32.96559 | 36034 ft | 386 kts | 282° |
| 2026-04-22 12:28 | 42.10864 | 32.89585 | 36032 ft | 386 kts | 282° |
| 2026-04-22 12:28 | 42.12289 | 32.82610 | 36051 ft | 385 kts | 282° |
| 2026-04-22 12:29 | 42.13683 | 32.75732 | 36037 ft | 383 kts | 282° |
| 2026-04-22 12:29 | 42.15078 | 32.68810 | 36038 ft | 383 kts | 282° |
| 2026-04-22 12:30 | 42.17166 | 32.58420 | 36039 ft | 383 kts | 281° |
| 2026-04-22 12:31 | 42.18552 | 32.51492 | 36039 ft | 383 kts | 281° |
| 2026-04-22 12:31 | 42.19933 | 32.44556 | 36037 ft | 382 kts | 281° |
| 2026-04-22 12:32 | 42.21302 | 32.37629 | 36037 ft | 382 kts | 281° |
| 2026-04-22 12:32 | 42.23354 | 32.27244 | 36040 ft | 382 kts | 281° |
| 2026-04-22 12:33 | 42.24719 | 32.20312 | 36040 ft | 382 kts | 281° |
| 2026-04-22 12:33 | 42.26073 | 32.13363 | 36050 ft | 383 kts | 281° |
| 2026-04-22 12:34 | 42.27434 | 32.06409 | 36048 ft | 383 kts | 281° |
| 2026-04-22 12:34 | 42.28795 | 31.99458 | 36047 ft | 383 kts | 281° |
| 2026-04-22 12:35 | 42.30146 | 31.92504 | 36052 ft | 383 kts | 281° |
| 2026-04-22 12:35 | 42.31492 | 31.85548 | 36068 ft | 384 kts | 281° |
| 2026-04-22 12:36 | 42.32831 | 31.78605 | 36062 ft | 385 kts | 281° |
| 2026-04-22 12:36 | 42.34177 | 31.71615 | 36056 ft | 384 kts | 281° |
| 2026-04-22 12:37 | 42.35515 | 31.64634 | 36058 ft | 383 kts | 281° |
| 2026-04-22 12:37 | 42.36860 | 31.57661 | 36059 ft | 383 kts | 281° |
| 2026-04-22 12:38 | 42.38201 | 31.50680 | 36064 ft | 384 kts | 281° |
| 2026-04-22 12:38 | 42.39526 | 31.43694 | 36058 ft | 384 kts | 281° |
| 2026-04-22 12:39 | 42.41509 | 31.33206 | 36066 ft | 384 kts | 281° |
| 2026-04-22 12:40 | 42.42826 | 31.26212 | 36063 ft | 383 kts | 281° |
| 2026-04-22 12:40 | 42.44137 | 31.19214 | 36089 ft | 384 kts | 281° |
| 2026-04-22 12:41 | 42.45452 | 31.12183 | 36073 ft | 385 kts | 281° |
| 2026-04-22 12:41 | 42.46534 | 31.06334 | 36075 ft | 386 kts | 281° |
| 2026-04-22 12:42 | 42.47840 | 30.99287 | 36067 ft | 385 kts | 281° |
| 2026-04-22 12:42 | 42.49140 | 30.92245 | 36079 ft | 385 kts | 281° |
| 2026-04-22 12:43 | 42.50438 | 30.85194 | 36093 ft | 387 kts | 281° |
| 2026-04-22 12:43 | 42.51737 | 30.78092 | 36079 ft | 389 kts | 281° |
| 2026-04-22 12:44 | 42.53039 | 30.70982 | 36067 ft | 388 kts | 281° |
| 2026-04-22 12:44 | 42.54316 | 30.63917 | 36067 ft | 388 kts | 281° |
| 2026-04-22 12:45 | 42.55607 | 30.56809 | 36071 ft | 388 kts | 281° |
| 2026-04-22 12:45 | 42.56894 | 30.49695 | 36080 ft | 389 kts | 281° |
| 2026-04-22 12:46 | 42.58171 | 30.42573 | 36073 ft | 388 kts | 281° |
| 2026-04-22 12:46 | 42.59447 | 30.35453 | 36074 ft | 388 kts | 281° |
| 2026-04-22 12:47 | 42.61203 | 30.28508 | 36070 ft | 394 kts | 294° |
| 2026-04-22 12:47 | 42.64775 | 30.22739 | 36076 ft | 410 kts | 315° |
| 2026-04-22 12:48 | 42.69439 | 30.18177 | 36071 ft | 414 kts | 318° |
| 2026-04-22 12:48 | 42.74131 | 30.13645 | 36069 ft | 413 kts | 317° |
| 2026-04-22 12:49 | 42.78797 | 30.09073 | 36071 ft | 413 kts | 317° |
| 2026-04-22 12:49 | 42.83441 | 30.04469 | 36071 ft | 413 kts | 317° |
| 2026-04-22 12:50 | 42.88118 | 29.99833 | 36087 ft | 418 kts | 317° |
| 2026-04-22 12:50 | 42.92830 | 29.95181 | 36080 ft | 418 kts | 317° |
| 2026-04-22 12:51 | 42.97550 | 29.90536 | 36074 ft | 418 kts | 317° |
| 2026-04-22 12:51 | 43.02257 | 29.85869 | 36073 ft | 418 kts | 317° |
| 2026-04-22 12:52 | 43.06961 | 29.81180 | 36077 ft | 419 kts | 317° |
| 2026-04-22 12:52 | 43.11669 | 29.76490 | 36072 ft | 418 kts | 317° |
| 2026-04-22 12:53 | 43.16383 | 29.71797 | 36081 ft | 420 kts | 318° |
| 2026-04-22 12:53 | 43.21077 | 29.67098 | 36075 ft | 421 kts | 318° |
| 2026-04-22 12:54 | 43.25808 | 29.62377 | 36073 ft | 421 kts | 318° |
| 2026-04-22 12:54 | 43.30533 | 29.57637 | 36074 ft | 421 kts | 317° |
| 2026-04-22 12:55 | 43.35249 | 29.52883 | 36072 ft | 421 kts | 317° |
| 2026-04-22 12:55 | 43.39977 | 29.48138 | 36071 ft | 421 kts | 317° |
| 2026-04-22 12:56 | 43.44707 | 29.43376 | 36084 ft | 423 kts | 319° |
| 2026-04-22 12:56 | 43.49465 | 29.38596 | 36081 ft | 424 kts | 318° |
| 2026-04-22 12:57 | 43.54219 | 29.33794 | 36068 ft | 424 kts | 318° |
| 2026-04-22 12:57 | 43.58965 | 29.28979 | 36070 ft | 424 kts | 318° |
| 2026-04-22 12:58 | 43.63711 | 29.24153 | 36074 ft | 424 kts | 318° |
| 2026-04-22 12:58 | 43.68456 | 29.19320 | 36068 ft | 424 kts | 318° |
| 2026-04-22 12:59 | 43.73110 | 29.14419 | 36084 ft | 421 kts | 313° |
| 2026-04-22 12:59 | 43.77003 | 29.08454 | 36077 ft | 417 kts | 306° |
| 2026-04-22 13:00 | 43.80713 | 29.02286 | 36079 ft | 417 kts | 306° |
| 2026-04-22 13:00 | 43.84451 | 28.96140 | 36081 ft | 417 kts | 306° |
| 2026-04-22 13:01 | 43.88205 | 28.90010 | 36072 ft | 417 kts | 306° |
| 2026-04-22 13:01 | 43.91964 | 28.83876 | 36068 ft | 417 kts | 306° |
| 2026-04-22 13:02 | 43.95718 | 28.77726 | 36070 ft | 418 kts | 307° |
| 2026-04-22 13:02 | 43.99468 | 28.71560 | 36068 ft | 418 kts | 307° |
| 2026-04-22 13:03 | 44.03215 | 28.65377 | 36067 ft | 418 kts | 306° |
| 2026-04-22 13:03 | 44.06956 | 28.59188 | 36068 ft | 418 kts | 306° |
| 2026-04-22 13:04 | 44.10702 | 28.52994 | 36083 ft | 419 kts | 307° |
| 2026-04-22 13:04 | 44.14461 | 28.46770 | 36073 ft | 420 kts | 307° |
| 2026-04-22 13:05 | 44.18209 | 28.40521 | 36074 ft | 420 kts | 307° |
| 2026-04-22 13:05 | 44.21952 | 28.34260 | 36069 ft | 420 kts | 307° |
| 2026-04-22 13:06 | 44.25709 | 28.28014 | 36076 ft | 420 kts | 307° |
| 2026-04-22 13:06 | 44.29453 | 28.21745 | 36066 ft | 420 kts | 307° |
| 2026-04-22 13:07 | 44.33193 | 28.15475 | 36074 ft | 420 kts | 307° |
| 2026-04-22 13:07 | 44.36905 | 28.09239 | 36067 ft | 420 kts | 307° |
| 2026-04-22 13:08 | 44.40632 | 28.02951 | 36078 ft | 420 kts | 307° |
| 2026-04-22 13:08 | 44.44367 | 27.96651 | 36069 ft | 421 kts | 307° |
| 2026-04-22 13:09 | 44.48102 | 27.90347 | 36072 ft | 421 kts | 307° |
| 2026-04-22 13:09 | 44.51837 | 27.84023 | 36075 ft | 421 kts | 307° |
| 2026-04-22 13:10 | 44.55573 | 27.77698 | 36075 ft | 421 kts | 307° |
| 2026-04-22 13:10 | 44.59301 | 27.71350 | 36068 ft | 422 kts | 307° |
| 2026-04-22 13:11 | 44.63026 | 27.64993 | 36070 ft | 422 kts | 307° |
| 2026-04-22 13:11 | 44.66749 | 27.58620 | 36071 ft | 422 kts | 307° |
| 2026-04-22 13:12 | 44.70466 | 27.52239 | 36068 ft | 422 kts | 307° |
| 2026-04-22 13:12 | 44.74184 | 27.45849 | 36076 ft | 422 kts | 307° |
| 2026-04-22 13:13 | 44.77904 | 27.39451 | 36074 ft | 422 kts | 307° |
| 2026-04-22 13:13 | 44.81616 | 27.33047 | 36073 ft | 422 kts | 307° |
| 2026-04-22 13:14 | 44.85296 | 27.26680 | 36072 ft | 422 kts | 307° |
| 2026-04-22 13:14 | 44.88999 | 27.20259 | 36075 ft | 423 kts | 307° |
| 2026-04-22 13:15 | 44.92704 | 27.13818 | 36074 ft | 423 kts | 307° |
| 2026-04-22 13:15 | 44.96406 | 27.07369 | 36072 ft | 423 kts | 307° |
| 2026-04-22 13:16 | 45.00100 | 27.00917 | 36075 ft | 423 kts | 307° |
| 2026-04-22 13:16 | 45.03791 | 26.94450 | 36079 ft | 423 kts | 307° |
| 2026-04-22 13:17 | 45.07483 | 26.87972 | 36070 ft | 423 kts | 307° |
| 2026-04-22 13:17 | 45.11170 | 26.81487 | 36074 ft | 423 kts | 307° |
| 2026-04-22 13:18 | 45.14853 | 26.74996 | 36076 ft | 423 kts | 307° |
| 2026-04-22 13:18 | 45.18531 | 26.68499 | 36075 ft | 422 kts | 307° |
| 2026-04-22 13:19 | 45.22203 | 26.61999 | 36076 ft | 422 kts | 307° |
| 2026-04-22 13:19 | 45.25872 | 26.55488 | 36085 ft | 423 kts | 307° |
| 2026-04-22 13:20 | 45.29545 | 26.48955 | 36079 ft | 423 kts | 307° |
| 2026-04-22 13:20 | 45.33216 | 26.42409 | 36074 ft | 424 kts | 307° |
| 2026-04-22 13:21 | 45.36886 | 26.35853 | 36072 ft | 424 kts | 307° |
| 2026-04-22 13:21 | 45.40550 | 26.29290 | 36075 ft | 423 kts | 307° |
| 2026-04-22 13:22 | 45.44212 | 26.22716 | 36079 ft | 424 kts | 307° |
| 2026-04-22 13:22 | 45.47869 | 26.16137 | 36078 ft | 424 kts | 307° |
| 2026-04-22 13:23 | 45.51531 | 26.09546 | 36078 ft | 425 kts | 307° |
| 2026-04-22 13:23 | 45.55189 | 26.02932 | 36076 ft | 424 kts | 307° |
| 2026-04-22 13:24 | 45.58843 | 25.96311 | 36078 ft | 425 kts | 307° |
| 2026-04-22 13:24 | 45.62497 | 25.89680 | 36076 ft | 425 kts | 307° |
| 2026-04-22 13:25 | 45.66150 | 25.83031 | 36077 ft | 427 kts | 307° |
| 2026-04-22 13:25 | 45.69988 | 25.76543 | 36073 ft | 427 kts | 309° |
| 2026-04-22 13:26 | 45.73564 | 25.69754 | 36057 ft | 427 kts | 306° |
| 2026-04-22 13:26 | 45.77118 | 25.63000 | 36054 ft | 428 kts | 307° |
| 2026-04-22 13:27 | 45.80765 | 25.56269 | 36051 ft | 428 kts | 307° |
| 2026-04-22 13:27 | 45.84424 | 25.49528 | 36055 ft | 428 kts | 307° |
| 2026-04-22 13:28 | 45.88077 | 25.42784 | 36055 ft | 428 kts | 307° |
| 2026-04-22 13:28 | 45.91724 | 25.36028 | 36059 ft | 428 kts | 307° |
| 2026-04-22 13:29 | 45.95369 | 25.29265 | 36053 ft | 428 kts | 307° |
| 2026-04-22 13:29 | 45.99006 | 25.22493 | 36059 ft | 428 kts | 307° |
| 2026-04-22 13:30 | 46.02649 | 25.15705 | 36058 ft | 428 kts | 307° |
| 2026-04-22 13:30 | 46.06288 | 25.08914 | 36058 ft | 428 kts | 307° |
| 2026-04-22 13:31 | 46.10273 | 25.02537 | 36056 ft | 429 kts | 311° |
| 2026-04-22 13:31 | 46.14106 | 24.95962 | 36054 ft | 429 kts | 308° |
| 2026-04-22 13:32 | 46.17752 | 24.89161 | 36058 ft | 429 kts | 307° |
| 2026-04-22 13:32 | 46.20759 | 24.83470 | 36054 ft | 429 kts | 306° |
| 2026-04-22 13:33 | 46.24219 | 24.76458 | 36057 ft | 429 kts | 307° |
| 2026-04-22 13:33 | 46.27584 | 24.69345 | 36056 ft | 429 kts | 304° |
| 2026-04-22 13:34 | 46.31028 | 24.62287 | 36061 ft | 430 kts | 307° |
| 2026-04-22 13:34 | 46.34625 | 24.55372 | 36061 ft | 430 kts | 307° |
| 2026-04-22 13:35 | 46.38238 | 24.48478 | 36061 ft | 430 kts | 307° |
| 2026-04-22 13:35 | 46.41844 | 24.41576 | 36056 ft | 430 kts | 307° |
| 2026-04-22 13:36 | 46.45451 | 24.34655 | 36069 ft | 430 kts | 307° |
| 2026-04-22 13:36 | 46.49051 | 24.27725 | 36072 ft | 430 kts | 307° |
| 2026-04-22 13:37 | 46.52650 | 24.20785 | 36077 ft | 430 kts | 307° |
| 2026-04-22 13:37 | 46.56245 | 24.13833 | 36077 ft | 430 kts | 307° |
| 2026-04-22 13:38 | 46.60100 | 24.07190 | 36075 ft | 430 kts | 313° |
| 2026-04-22 13:38 | 46.65778 | 23.97089 | 36077 ft | 431 kts | 306° |
| 2026-04-22 13:39 | 46.69042 | 23.89771 | 36077 ft | 431 kts | 302° |
| 2026-04-22 13:39 | 46.72352 | 23.82565 | 36079 ft | 431 kts | 306° |
| 2026-04-22 13:40 | 46.75886 | 23.75538 | 36080 ft | 429 kts | 307° |
| 2026-04-22 13:40 | 46.79451 | 23.68536 | 36080 ft | 430 kts | 307° |
| 2026-04-22 13:41 | 46.83016 | 23.61516 | 36083 ft | 431 kts | 307° |
| 2026-04-22 13:41 | 46.86578 | 23.54479 | 36082 ft | 431 kts | 307° |
| 2026-04-22 13:42 | 46.90135 | 23.47435 | 36080 ft | 431 kts | 307° |
| 2026-04-22 13:42 | 46.93693 | 23.40370 | 36083 ft | 431 kts | 307° |
| 2026-04-22 13:43 | 46.97245 | 23.33300 | 36083 ft | 431 kts | 307° |
| 2026-04-22 13:43 | 47.00796 | 23.26214 | 36087 ft | 431 kts | 307° |
| 2026-04-22 13:44 | 47.04341 | 23.19113 | 36076 ft | 431 kts | 307° |
| 2026-04-22 13:44 | 47.07858 | 23.12068 | 36082 ft | 431 kts | 307° |
| 2026-04-22 13:45 | 47.11396 | 23.04958 | 36086 ft | 431 kts | 307° |
| 2026-04-22 13:45 | 47.14930 | 22.97839 | 36085 ft | 432 kts | 307° |
| 2026-04-22 13:46 | 47.18458 | 22.90702 | 36085 ft | 431 kts | 307° |
| 2026-04-22 13:46 | 47.21985 | 22.83553 | 36090 ft | 432 kts | 307° |
| 2026-04-22 13:47 | 47.25513 | 22.76384 | 36091 ft | 432 kts | 307° |
| 2026-04-22 13:47 | 47.29035 | 22.69209 | 36091 ft | 432 kts | 307° |
| 2026-04-22 13:48 | 47.32552 | 22.62024 | 36087 ft | 432 kts | 307° |
| 2026-04-22 13:48 | 47.36064 | 22.54830 | 36074 ft | 432 kts | 307° |
| 2026-04-22 13:49 | 47.39574 | 22.47622 | 36084 ft | 432 kts | 307° |
| 2026-04-22 13:49 | 47.43077 | 22.40411 | 36084 ft | 432 kts | 307° |
| 2026-04-22 13:50 | 47.46578 | 22.33185 | 36089 ft | 432 kts | 307° |
| 2026-04-22 13:50 | 47.50075 | 22.25949 | 36087 ft | 432 kts | 307° |
| 2026-04-22 13:51 | 47.53566 | 22.18700 | 36086 ft | 433 kts | 307° |
| 2026-04-22 13:51 | 47.57065 | 22.11445 | 36086 ft | 433 kts | 309° |
| 2026-04-22 13:52 | 47.60929 | 22.04602 | 36093 ft | 433 kts | 312° |
| 2026-04-22 13:52 | 47.64852 | 21.97818 | 36095 ft | 434 kts | 312° |
| 2026-04-22 13:53 | 47.68767 | 21.91019 | 36089 ft | 433 kts | 312° |
| 2026-04-22 13:53 | 47.72682 | 21.84203 | 36100 ft | 434 kts | 312° |
| 2026-04-22 13:54 | 47.76586 | 21.77373 | 36096 ft | 434 kts | 312° |
| 2026-04-22 13:54 | 47.80491 | 21.70540 | 36099 ft | 434 kts | 312° |
| 2026-04-22 13:55 | 47.84389 | 21.63686 | 36107 ft | 434 kts | 312° |
| 2026-04-22 13:55 | 47.88286 | 21.56825 | 36107 ft | 434 kts | 312° |
| 2026-04-22 13:56 | 47.92178 | 21.49946 | 36103 ft | 434 kts | 312° |
| 2026-04-22 13:56 | 47.96074 | 21.43050 | 36097 ft | 435 kts | 312° |
| 2026-04-22 13:57 | 47.99947 | 21.36184 | 36100 ft | 435 kts | 312° |
| 2026-04-22 13:57 | 48.03837 | 21.29259 | 36093 ft | 435 kts | 312° |
| 2026-04-22 13:58 | 48.07724 | 21.22321 | 36105 ft | 435 kts | 312° |
| 2026-04-22 13:58 | 48.11613 | 21.15372 | 36092 ft | 435 kts | 312° |
| 2026-04-22 13:59 | 48.15494 | 21.08418 | 36095 ft | 435 kts | 312° |
| 2026-04-22 13:59 | 48.19374 | 21.01447 | 36090 ft | 436 kts | 312° |
| 2026-04-22 14:00 | 48.23238 | 20.94456 | 36088 ft | 436 kts | 312° |
| 2026-04-22 14:00 | 48.27109 | 20.87462 | 36100 ft | 436 kts | 312° |
| 2026-04-22 14:01 | 48.30988 | 20.80437 | 36093 ft | 438 kts | 312° |
| 2026-04-22 14:01 | 48.34868 | 20.73386 | 36098 ft | 438 kts | 312° |
| 2026-04-22 14:02 | 48.38745 | 20.66317 | 36097 ft | 438 kts | 312° |
| 2026-04-22 14:02 | 48.42630 | 20.59242 | 36087 ft | 439 kts | 313° |
| 2026-04-22 14:03 | 48.46515 | 20.52153 | 36087 ft | 439 kts | 312° |
| 2026-04-22 14:03 | 48.50873 | 20.45855 | 36084 ft | 432 kts | 326° |
| 2026-04-22 14:04 | 48.55714 | 20.40514 | 36106 ft | 431 kts | 327° |
| 2026-04-22 14:04 | 48.60551 | 20.35151 | 36073 ft | 432 kts | 327° |
| 2026-04-22 14:05 | 48.65386 | 20.29751 | 36085 ft | 433 kts | 327° |
| 2026-04-22 14:06 | 48.72613 | 20.21651 | 36087 ft | 429 kts | 327° |
| 2026-04-22 14:06 | 48.77393 | 20.16277 | 36087 ft | 427 kts | 326° |
| 2026-04-22 14:07 | 48.82149 | 20.10914 | 36101 ft | 425 kts | 327° |
| 2026-04-22 14:07 | 48.86892 | 20.05561 | 36100 ft | 427 kts | 326° |
| 2026-04-22 14:08 | 48.91700 | 20.00111 | 36112 ft | 434 kts | 327° |
| 2026-04-22 14:08 | 48.96540 | 19.94616 | 36121 ft | 434 kts | 327° |
| 2026-04-22 14:09 | 49.01373 | 19.89117 | 36114 ft | 433 kts | 327° |
| 2026-04-22 14:09 | 49.06204 | 19.83603 | 36113 ft | 434 kts | 327° |
| 2026-04-22 14:10 | 49.11023 | 19.78093 | 36108 ft | 431 kts | 327° |
| 2026-04-22 14:10 | 49.13405 | 19.75362 | 35505 ft | 429 kts | 327° |
| 2026-04-22 14:10 | 49.15809 | 19.72602 | 34517 ft | 436 kts | 327° |
| 2026-04-22 14:10 | 49.18247 | 19.69800 | 33692 ft | 438 kts | 327° |
| 2026-04-22 14:11 | 49.20681 | 19.67050 | 32977 ft | 432 kts | 330° |
| 2026-04-22 14:11 | 49.23298 | 19.64966 | 32382 ft | 417 kts | 345° |
| 2026-04-22 14:11 | 49.26081 | 19.64025 | 31739 ft | 405 kts | 360° |
| 2026-04-22 14:11 | 49.28864 | 19.63986 | 31148 ft | 397 kts | 5° |
| 2026-04-22 14:12 | 49.31604 | 19.64117 | 30609 ft | 391 kts | 6° |
| 2026-04-22 14:12 | 49.34305 | 19.64240 | 30064 ft | 386 kts | 6° |
| 2026-04-22 14:12 | 49.36969 | 19.64346 | 29449 ft | 380 kts | 6° |
| 2026-04-22 14:12 | 49.39590 | 19.64444 | 28903 ft | 374 kts | 6° |
| 2026-04-22 14:13 | 49.42163 | 19.64568 | 28425 ft | 365 kts | 8° |
| 2026-04-22 14:13 | 49.44603 | 19.65289 | 27959 ft | 351 kts | 22° |
| 2026-04-22 14:13 | 49.46706 | 19.66922 | 27562 ft | 339 kts | 37° |
| 2026-04-22 14:13 | 49.48445 | 19.69282 | 27147 ft | 330 kts | 47° |
| 2026-04-22 14:14 | 49.50001 | 19.71856 | 26717 ft | 326 kts | 48° |
| 2026-04-22 14:14 | 49.51524 | 19.74415 | 26291 ft | 323 kts | 47° |
| 2026-04-22 14:14 | 49.53042 | 19.76939 | 25891 ft | 319 kts | 47° |
| 2026-04-22 14:14 | 49.54550 | 19.79415 | 25504 ft | 315 kts | 47° |
| 2026-04-22 14:15 | 49.56047 | 19.81858 | 25125 ft | 312 kts | 47° |
| 2026-04-22 14:15 | 49.57683 | 19.84051 | 24489 ft | 315 kts | 34° |
| 2026-04-22 14:15 | 49.59710 | 19.85442 | 23719 ft | 325 kts | 17° |
| 2026-04-22 14:15 | 49.61994 | 19.85810 | 22743 ft | 339 kts | 0° |
| 2026-04-22 14:16 | 49.64341 | 19.85028 | 21909 ft | 350 kts | 346° |
| 2026-04-22 14:16 | 49.66624 | 19.83714 | 21310 ft | 349 kts | 343° |
| 2026-04-22 14:16 | 49.68880 | 19.82382 | 20755 ft | 346 kts | 343° |
| 2026-04-22 14:16 | 49.71126 | 19.81090 | 20218 ft | 343 kts | 344° |
| 2026-04-22 14:17 | 49.73356 | 19.79831 | 19686 ft | 340 kts | 344° |
| 2026-04-22 14:17 | 49.75569 | 19.78594 | 19160 ft | 337 kts | 344° |
| 2026-04-22 14:17 | 49.77766 | 19.77376 | 18668 ft | 334 kts | 344° |
| 2026-04-22 14:17 | 49.79943 | 19.76171 | 18134 ft | 331 kts | 344° |
| 2026-04-22 14:18 | 49.82100 | 19.74982 | 17558 ft | 328 kts | 343° |
| 2026-04-22 14:18 | 49.84243 | 19.73807 | 17004 ft | 325 kts | 343° |
| 2026-04-22 14:18 | 49.86369 | 19.72638 | 16457 ft | 323 kts | 343° |
| 2026-04-22 14:18 | 49.88477 | 19.71471 | 15915 ft | 320 kts | 343° |
| 2026-04-22 14:19 | 49.89864 | 19.70703 | 15570 ft | 319 kts | 343° |
| 2026-04-22 14:19 | 49.91944 | 19.69548 | 15063 ft | 316 kts | 343° |
| 2026-04-22 14:19 | 49.94002 | 19.68386 | 14566 ft | 314 kts | 342° |
| 2026-04-22 14:19 | 49.96045 | 19.67229 | 14078 ft | 311 kts | 342° |
| 2026-04-22 14:20 | 50.00080 | 19.64961 | 13023 ft | 306 kts | 342° |
| 2026-04-22 14:20 | 50.02078 | 19.63849 | 12481 ft | 304 kts | 342° |
| 2026-04-22 14:20 | 50.04059 | 19.62747 | 11954 ft | 301 kts | 342° |
| 2026-04-22 14:21 | 50.07973 | 19.60566 | 10925 ft | 296 kts | 341° |
| 2026-04-22 14:21 | 50.09904 | 19.59475 | 10448 ft | 293 kts | 341° |
| 2026-04-22 14:22 | 50.13642 | 19.57364 | 9787 ft | 278 kts | 341° |
| 2026-04-22 14:22 | 50.15426 | 19.56358 | 9494 ft | 269 kts | 341° |
| 2026-04-22 14:22 | 50.18932 | 19.54380 | 8587 ft | 264 kts | 341° |
| 2026-04-22 14:23 | 50.20655 | 19.53415 | 8174 ft | 262 kts | 341° |
| 2026-04-22 14:23 | 50.22361 | 19.52451 | 7750 ft | 260 kts | 340° |
| 2026-04-22 14:23 | 50.24063 | 19.51485 | 7354 ft | 261 kts | 340° |
| 2026-04-22 14:23 | 50.25766 | 19.50520 | 7002 ft | 261 kts | 340° |
| 2026-04-22 14:24 | 50.27459 | 19.49566 | 6646 ft | 256 kts | 340° |
| 2026-04-22 14:24 | 50.29139 | 19.48617 | 6174 ft | 257 kts | 340° |
| 2026-04-22 14:24 | 50.30810 | 19.47669 | 5773 ft | 254 kts | 339° |
| 2026-04-22 14:24 | 50.32467 | 19.46727 | 5394 ft | 252 kts | 340° |
| 2026-04-22 14:25 | 50.34112 | 19.45798 | 5070 ft | 249 kts | 340° |
| 2026-04-22 14:25 | 50.35745 | 19.44869 | 4724 ft | 251 kts | 340° |
| 2026-04-22 14:25 | 50.37385 | 19.43937 | 4361 ft | 249 kts | 339° |
| 2026-04-22 14:25 | 50.39003 | 19.43019 | 4048 ft | 245 kts | 339° |
| 2026-04-22 14:26 | 50.40573 | 19.42123 | 3959 ft | 233 kts | 339° |
| 2026-04-22 14:26 | 50.42049 | 19.41285 | 3946 ft | 218 kts | 339° |
| 2026-04-22 14:26 | 50.43422 | 19.40503 | 3965 ft | 202 kts | 339° |
| 2026-04-22 14:26 | 50.44678 | 19.39799 | 3947 ft | 187 kts | 339° |
| 2026-04-22 14:27 | 50.45905 | 19.39094 | 3967 ft | 189 kts | 339° |
| 2026-04-22 14:27 | 50.47045 | 19.38076 | 3974 ft | 191 kts | 311° |
| 2026-04-22 14:27 | 50.47559 | 19.36253 | 4007 ft | 174 kts | 282° |
| 2026-04-22 14:27 | 50.47574 | 19.34471 | 3982 ft | 153 kts | 270° |
| 2026-04-22 14:28 | 50.47549 | 19.32826 | 3883 ft | 150 kts | 274° |
| 2026-04-22 14:28 | 50.47547 | 19.31182 | 3713 ft | 152 kts | 275° |
| 2026-04-22 14:28 | 50.47549 | 19.29532 | 3539 ft | 150 kts | 275° |
| 2026-04-22 14:28 | 50.47552 | 19.27891 | 3353 ft | 150 kts | 275° |
| 2026-04-22 14:29 | 50.47556 | 19.26270 | 3151 ft | 148 kts | 275° |
| 2026-04-22 14:29 | 50.47560 | 19.24657 | 2931 ft | 147 kts | 276° |
| 2026-04-22 14:29 | 50.47563 | 19.23087 | 2731 ft | 137 kts | 276° |
| 2026-04-22 14:29 | 50.47566 | 19.21671 | 2545 ft | 126 kts | 276° |
| 2026-04-22 14:30 | 50.47570 | 19.20298 | 2358 ft | 126 kts | 276° |
| 2026-04-22 14:30 | 50.47574 | 19.18916 | 2175 ft | 127 kts | 275° |
| 2026-04-22 14:30 | 50.47577 | 19.17514 | 1998 ft | 129 kts | 276° |
| 2026-04-22 14:30 | 50.47580 | 19.16120 | 1818 ft | 126 kts | 276° |
| 2026-04-22 14:31 | 50.47584 | 19.14749 | 1641 ft | 128 kts | 276° |
| 2026-04-22 14:31 | 50.47587 | 19.13360 | 1473 ft | 127 kts | 276° |
| 2026-04-22 14:31 | 50.47593 | 19.11981 | 1276 ft | 125 kts | 275° |
| 2026-04-22 14:31 | 50.47583 | 19.10631 | 1077 ft | 118 kts | 275° |
| 2026-04-22 14:32 | 50.47590 | 19.09350 | 1006 ft | 107 kts | 274° |
| 2026-04-22 14:32 | 50.47599 | 19.08517 | 1003 ft | 47 kts | 270° |
| 2026-04-22 14:32 | 50.47598 | 19.08211 | 1003 ft | 15 kts | 270° |
| 2026-04-22 14:32 | 50.47599 | 19.08019 | 1002 ft | 19 kts | 270° |
| 2026-04-22 14:33 | 50.47599 | 19.07799 | 1004 ft | 21 kts | 270° |
| 2026-04-22 14:33 | 50.47599 | 19.07554 | 1006 ft | 23 kts | 270° |
| 2026-04-22 14:33 | 50.47600 | 19.07289 | 1007 ft | 25 kts | 270° |
| 2026-04-22 14:33 | 50.47548 | 19.07019 | 1005 ft | 26 kts | 232° |
| 2026-04-22 14:34 | 50.47499 | 19.06891 | 1004 ft | 7 kts | 244° |
| 2026-04-22 14:34 | 50.47493 | 19.06868 | 1004 ft | 5 kts | 244° |
| 2026-04-22 14:34 | 50.47466 | 19.06796 | 1004 ft | 9 kts | 240° |
| 2026-04-22 14:34 | 50.47429 | 19.06692 | 1004 ft | 12 kts | 242° |
| 2026-04-22 14:35 | 50.47352 | 19.06625 | 1004 ft | 15 kts | 181° |
| 2026-04-22 14:35 | 50.47272 | 19.06622 | 1004 ft | 2 kts | 170° |
| 2026-04-22 14:35 | 50.47250 | 19.06643 | 1004 ft | 5 kts | 130° |
| 2026-04-22 14:35 | 50.47237 | 19.06717 | 1004 ft | 10 kts | 88° |
| 2026-04-22 14:36 | 50.47233 | 19.06837 | 1004 ft | 12 kts | 93° |
| 2026-04-22 14:36 | 50.47232 | 19.06897 | 1004 ft | 3 kts | 106° |
| 2026-04-22 14:36 | 50.47202 | 19.06920 | 1004 ft | 7 kts | 180° |
| 2026-04-22 14:36 | 50.47165 | 19.06920 | 1004 ft | 0 kts | 182° |
| 2026-04-22 14:37 | 50.47164 | 19.06920 | 1004 ft | 0 kts | 182° |